sensor_id;sensor_type;location;lat;lon;timestamp;temperature;humidity
46634;DHT22;32362;49.986;8.026;2023-05-02T00:16:10;11.40;98.60
46634;DHT22;32362;49.986;8.026;2023-05-02T00:42:50;10.90;99.90
46634;DHT22;32362;49.986;8.026;2023-05-02T01:36:50;12.00;95.40
46634;DHT22;32362;49.986;8.026;2023-05-02T02:03:31;12.40;94.30
46634;DHT22;32362;49.986;8.026;2023-05-02T02:30:12;11.90;96.90
46634;DHT22;32362;49.986;8.026;2023-05-02T02:57:00;11.80;98.10
46634;DHT22;32362;49.986;8.026;2023-05-02T03:23:44;11.60;99.90
46634;DHT22;32362;49.986;8.026;2023-05-02T03:50:25;11.40;99.90
46634;DHT22;32362;49.986;8.026;2023-05-02T04:17:07;11.60;99.90
46634;DHT22;32362;49.986;8.026;2023-05-02T04:44:09;11.90;99.90
46634;DHT22;32362;49.986;8.026;2023-05-02T05:11:07;12.50;98.00
46634;DHT22;32362;49.986;8.026;2023-05-02T05:37:52;12.70;95.40
46634;DHT22;32362;49.986;8.026;2023-05-02T06:04:34;14.00;91.60
46634;DHT22;32362;49.986;8.026;2023-05-02T06:31:18;14.00;90.20
46634;DHT22;32362;49.986;8.026;2023-05-02T06:58:14;14.70;86.70
46634;DHT22;32362;49.986;8.026;2023-05-02T07:25:00;15.40;82.00
46634;DHT22;32362;49.986;8.026;2023-05-02T07:51:44;15.50;80.70
46634;DHT22;32362;49.986;8.026;2023-05-02T08:18:26;15.10;80.90
46634;DHT22;32362;49.986;8.026;2023-05-02T08:45:07;15.10;81.30
46634;DHT22;32362;49.986;8.026;2023-05-02T09:11:49;17.00;75.60
46634;DHT22;32362;49.986;8.026;2023-05-02T09:38:31;20.80;61.70
46634;DHT22;32362;49.986;8.026;2023-05-02T10:05:12;19.30;63.60
46634;DHT22;32362;49.986;8.026;2023-05-02T10:31:53;19.20;62.30
46634;DHT22;32362;49.986;8.026;2023-05-02T10:58:34;22.70;58.30
46634;DHT22;32362;49.986;8.026;2023-05-02T11:25:35;24.20;51.80
46634;DHT22;32362;49.986;8.026;2023-05-02T11:52:16;23.50;51.00
46634;DHT22;32362;49.986;8.026;2023-05-02T12:18:57;21.20;54.70
46634;DHT22;32362;49.986;8.026;2023-05-02T12:46:09;25.80;46.30
46634;DHT22;32362;49.986;8.026;2023-05-02T13:13:05;23.70;49.00
46634;DHT22;32362;49.986;8.026;2023-05-02T13:39:47;23.40;47.80
46634;DHT22;32362;49.986;8.026;2023-05-02T14:06:43;24.40;47.40
46634;DHT22;32362;49.986;8.026;2023-05-02T14:33:25;24.80;46.50
46634;DHT22;32362;49.986;8.026;2023-05-02T15:00:09;30.70;41.60
46634;DHT22;32362;49.986;8.026;2023-05-02T15:27:06;31.00;37.50
46634;DHT22;32362;49.986;8.026;2023-05-02T15:53:48;32.00;37.10
46634;DHT22;32362;49.986;8.026;2023-05-02T16:20:31;31.90;35.50
46634;DHT22;32362;49.986;8.026;2023-05-02T16:47:15;31.60;35.70
46634;DHT22;32362;49.986;8.026;2023-05-02T17:14:00;30.50;36.40
46634;DHT22;32362;49.986;8.026;2023-05-02T17:40:45;20.80;46.50
46634;DHT22;32362;49.986;8.026;2023-05-02T18:07:25;18.50;63.50
46634;DHT22;32362;49.986;8.026;2023-05-02T18:34:12;15.80;69.10
46634;DHT22;32362;49.986;8.026;2023-05-02T19:00:53;14.70;60.60
46634;DHT22;32362;49.986;8.026;2023-05-02T19:27:34;14.10;63.20
46634;DHT22;32362;49.986;8.026;2023-05-02T19:54:15;13.00;66.10
46634;DHT22;32362;49.986;8.026;2023-05-02T20:20:55;12.20;69.00
46634;DHT22;32362;49.986;8.026;2023-05-02T20:47:40;11.50;71.20
46634;DHT22;32362;49.986;8.026;2023-05-02T21:14:24;10.60;84.00
46634;DHT22;32362;49.986;8.026;2023-05-02T21:41:09;10.30;75.60
46634;DHT22;32362;49.986;8.026;2023-05-02T22:07:53;9.00;80.00
46634;DHT22;32362;49.986;8.026;2023-05-02T22:34:35;10.20;93.50
46634;DHT22;32362;49.986;8.026;2023-05-02T23:01:16;8.20;95.50
46634;DHT22;32362;49.986;8.026;2023-05-02T23:28:11;8.00;85.30
